KAFF/AFF METAR and TAF weather

Enter ICAO airport designator
Station Type Date Time Source
KAFF METAR 2020/01/23 20:58 UTC NOAA

KAFF 232058Z AUTO 00000KT 10SM OVC085 03/M12 A3003 RMK AO2 SLP195 T00311124 57021


Station Type Date Time Source
KAFF Decoded METAR 2020/01/23 20:58 UTC NOAA

Air Force Academy, CO, United States (KAFF) 38-58N 104-49W 1999M
Jan 23, 2020 - 03:58 PM EST / 2020.01.23 2058 UTC
Wind: Calm:0
Visibility: 10 mile(s):0
Sky conditions: overcast
Temperature: 37.6 F (3.1 C)
Dew Point: 9.7 F (-12.4 C)
Relative Humidity: 30%
Pressure (altimeter): 30.03 in. Hg (1016 hPa)
Pressure tendency: 0.06 inches (2.1 hPa) lower than three hours ago
ob: KAFF 232058Z AUTO 00000KT 10SM OVC085 03/M12 A3003 RMK AO2 SLP195 T00311124 57021
cycle: 21

Station Type Date Time Source
KAFF TAF 2020/01/23 20:03 UTC NOAA

TAF TAF KAFF 232000Z 2320/2502 35009KT 9999 FEW075 SCT100 510307 QNH3004INS WND 290V080
BECMG 2401/2402 35009KT 9999 FEW240 510307 QNH3000INS
BECMG 2416/2417 16012KT 9999 FEW065 SCT220 510009 QNH2995INS
BECMG 2500/2501 34009KT 9999 FEW120 SCT200 510307 QNH2998INS TX05/2322Z TNM07/2414Z

Example: see airport list